Time;durP1;ratioP1;P1;durP2;ratioP2;P2;SDS_P1;SDS_P2;PMS_P1;PMS_P2;Temp;Humidity;BMP_temperature;BMP_pressure;BME280_temperature;BME280_humidity;BME280_pressure;Samples;Min_cycle;Max_cycle;Signal;HPM_P1;HPM_P2
2021/07/21 00:01:12;;;;;;;;;;;16.80;89.70;;;;;;4939897;28;20288;-65
2021/07/21 00:03:38;;;;;;;;;;;16.70;89.90;;;;;;4939423;28;19931;-67
2021/07/21 00:06:03;;;;;;;;;;;16.70;90.10;;;;;;4942056;29;19986;-68
2021/07/21 00:08:29;;;;;;;;;;;16.70;90.20;;;;;;4938615;28;20400;-67
2021/07/21 00:13:27;;;;;;;;;;;16.60;90.30;;;;;;4942442;28;19993;-65
2021/07/21 00:13:40;;;;;;;;;;;16.60;90.50;;;;;;4941330;28;20400;-66
2021/07/21 00:16:22;;;;;;;;;;;16.60;90.60;;;;;;4940205;28;20023;-67
2021/07/21 00:18:55;;;;;;;;;;;16.60;90.80;;;;;;4942818;28;19930;-68
2021/07/21 00:21:22;;;;;;;;;;;16.60;90.70;;;;;;4939902;28;20145;-67
2021/07/21 00:23:47;;;;;;;;;;;16.60;90.70;;;;;;4935953;29;20407;-64
2021/07/21 00:26:13;;;;;;;;;;;16.60;90.60;;;;;;4936408;28;19922;-66
2021/07/21 00:28:41;;;;;;;;;;;16.60;90.90;;;;;;4942406;29;19929;-65
2021/07/21 00:31:07;;;;;;;;;;;16.50;90.90;;;;;;4939739;28;20010;-64
2021/07/21 00:33:32;;;;;;;;;;;16.50;91.30;;;;;;4941710;28;20064;-65
2021/07/21 00:35:58;;;;;;;;;;;16.40;91.40;;;;;;4944267;28;20021;-65
2021/07/21 00:38:23;;;;;;;;;;;16.40;91.60;;;;;;4944526;28;19926;-66
2021/07/21 00:40:50;;;;;;;;;;;16.50;91.50;;;;;;4941313;29;20009;-65
2021/07/21 00:43:16;;;;;;;;;;;16.60;91.40;;;;;;4940170;28;19923;-66
2021/07/21 00:45:42;;;;;;;;;;;16.60;91.20;;;;;;4938807;29;19915;-67
2021/07/21 00:48:07;;;;;;;;;;;16.50;91.30;;;;;;4943498;28;19925;-65
2021/07/21 00:50:33;;;;;;;;;;;16.60;91.30;;;;;;4939709;28;19926;-66
2021/07/21 00:52:58;;;;;;;;;;;16.50;91.40;;;;;;4943761;29;19950;-67
2021/07/21 00:55:25;;;;;;;;;;;16.50;91.60;;;;;;4934834;28;19944;-65
2021/07/21 00:57:51;;;;;;;;;;;16.50;91.80;;;;;;4936293;29;20032;-66
2021/07/21 01:00:17;;;;;;;;;;;16.50;92.00;;;;;;4937104;28;19930;-68
2021/07/21 01:02:43;;;;;;;;;;;16.40;92.00;;;;;;4939858;28;19915;-69
2021/07/21 01:05:11;;;;;;;;;;;16.50;92.10;;;;;;4937335;29;19928;-69
2021/07/21 01:07:43;;;;;;;;;;;16.50;92.10;;;;;;4943580;28;19961;-70
2021/07/21 01:10:08;;;;;;;;;;;16.50;92.10;;;;;;4943373;28;19922;-67
2021/07/21 01:12:52;;;;;;;;;;;16.50;92.10;;;;;;4941410;29;19926;-66
2021/07/21 01:15:23;;;;;;;;;;;16.50;92.20;;;;;;4938725;28;19926;-69
2021/07/21 01:17:59;;;;;;;;;;;16.50;92.10;;;;;;4940810;28;20395;-67
2021/07/21 01:20:27;;;;;;;;;;;16.50;92.20;;;;;;4935842;28;20376;-66
2021/07/21 01:23:01;;;;;;;;;;;16.50;92.00;;;;;;4938914;28;20292;-66
2021/07/21 01:25:35;;;;;;;;;;;16.50;92.20;;;;;;4936062;28;20033;-69
2021/07/21 01:28:02;;;;;;;;;;;16.50;92.10;;;;;;4934197;29;19997;-67
2021/07/21 01:30:29;;;;;;;;;;;16.40;92.40;;;;;;4939279;29;19930;-66
2021/07/21 01:33:06;;;;;;;;;;;16.50;92.30;;;;;;4938187;28;19914;-70
2021/07/21 01:35:50;;;;;;;;;;;16.50;92.10;;;;;;4941742;28;19997;-67
2021/07/21 01:38:21;;;;;;;;;;;16.50;91.90;;;;;;4936512;28;19919;-66
2021/07/21 01:40:50;;;;;;;;;;;16.60;91.70;;;;;;4938479;28;20077;-68
2021/07/21 01:43:17;;;;;;;;;;;16.60;91.60;;;;;;4940969;28;19950;-68
2021/07/21 01:45:44;;;;;;;;;;;16.50;91.50;;;;;;4944197;28;20360;-67
2021/07/21 01:48:10;;;;;;;;;;;16.50;91.60;;;;;;4933674;28;19980;-66
2021/07/21 01:50:36;;;;;;;;;;;16.50;91.50;;;;;;4942634;29;19950;-69
2021/07/21 01:53:02;;;;;;;;;;;16.50;91.30;;;;;;4942068;28;20236;-69
2021/07/21 01:55:28;;;;;;;;;;;16.50;91.40;;;;;;4935156;28;19930;-66
2021/07/21 01:57:55;;;;;;;;;;;16.50;91.30;;;;;;4935637;28;20135;-66
2021/07/21 02:00:20;;;;;;;;;;;16.40;90.80;;;;;;4940081;29;19937;-67
2021/07/21 02:02:50;;;;;;;;;;;16.40;90.50;;;;;;4939840;28;19922;-67
2021/07/21 02:05:17;;;;;;;;;;;16.40;90.60;;;;;;4932961;29;20368;-66
2021/07/21 02:07:44;;;;;;;;;;;16.30;90.60;;;;;;4929142;28;19968;-67
2021/07/21 02:10:11;;;;;;;;;;;16.30;90.50;;;;;;4937731;28;20455;-66
2021/07/21 02:12:37;;;;;;;;;;;16.30;90.70;;;;;;4932865;28;20257;-66
2021/07/21 02:15:03;;;;;;;;;;;16.30;90.50;;;;;;4938973;28;19977;-67
2021/07/21 02:17:29;;;;;;;;;;;16.30;90.20;;;;;;4942133;28;19926;-66
2021/07/21 02:19:55;;;;;;;;;;;16.20;90.20;;;;;;4941236;28;19919;-67
2021/07/21 02:22:21;;;;;;;;;;;16.20;90.60;;;;;;4937136;28;20017;-67
2021/07/21 02:24:47;;;;;;;;;;;16.30;90.80;;;;;;4937085;28;19916;-67
2021/07/21 02:27:14;;;;;;;;;;;16.30;90.70;;;;;;4928119;28;19922;-67
2021/07/21 02:29:40;;;;;;;;;;;16.30;90.50;;;;;;4938809;28;20332;-67
2021/07/21 02:32:14;;;;;;;;;;;16.30;90.50;;;;;;4932382;28;19919;-66
2021/07/21 02:34:43;;;;;;;;;;;16.30;90.70;;;;;;4938415;28;19927;-67
2021/07/21 02:37:12;;;;;;;;;;;16.20;90.90;;;;;;4946616;28;20571;-68
2021/07/21 02:39:38;;;;;;;;;;;16.10;91.00;;;;;;4943671;29;20419;-67
2021/07/21 02:42:03;;;;;;;;;;;16.10;91.20;;;;;;4940567;28;19958;-69
2021/07/21 02:44:29;;;;;;;;;;;16.10;91.20;;;;;;4932250;28;19914;-67
2021/07/21 02:46:54;;;;;;;;;;;16.10;91.40;;;;;;4938140;28;19930;-67
2021/07/21 02:49:20;;;;;;;;;;;16.10;91.50;;;;;;4939808;28;19925;-69
2021/07/21 02:51:48;;;;;;;;;;;16.10;91.40;;;;;;4940298;28;19918;-69
2021/07/21 02:54:21;;;;;;;;;;;16.10;91.50;;;;;;4942217;29;20041;-66
2021/07/21 02:56:50;;;;;;;;;;;16.10;91.50;;;;;;4939607;28;20333;-68
2021/07/21 02:59:18;;;;;;;;;;;16.10;91.60;;;;;;4934842;28;20491;-66
2021/07/21 03:01:47;;;;;;;;;;;16.00;91.70;;;;;;4934931;28;19929;-66
2021/07/21 03:04:14;;;;;;;;;;;16.00;92.00;;;;;;4944678;28;19990;-67
2021/07/21 03:06:40;;;;;;;;;;;15.90;92.20;;;;;;4942373;29;20333;-67
2021/07/21 03:09:05;;;;;;;;;;;15.80;92.50;;;;;;4947169;28;20162;-67
2021/07/21 03:11:31;;;;;;;;;;;15.80;92.80;;;;;;4946419;28;19952;-68
2021/07/21 03:14:01;;;;;;;;;;;15.70;92.70;;;;;;4939862;28;19957;-67
2021/07/21 03:16:28;;;;;;;;;;;15.50;93.00;;;;;;4941393;28;20012;-67
2021/07/21 03:18:56;;;;;;;;;;;15.50;93.40;;;;;;4945732;28;20480;-68
2021/07/21 03:21:23;;;;;;;;;;;15.40;93.70;;;;;;4938916;28;19938;-68
2021/07/21 03:23:49;;;;;;;;;;;15.30;93.70;;;;;;4940030;28;20021;-67
2021/07/21 03:26:15;;;;;;;;;;;15.20;94.10;;;;;;4942224;29;19927;-67
2021/07/21 03:28:41;;;;;;;;;;;15.20;94.30;;;;;;4945342;29;19949;-67
2021/07/21 03:31:07;;;;;;;;;;;15.10;94.50;;;;;;4932857;28;19966;-68
2021/07/21 03:33:32;;;;;;;;;;;15.10;94.60;;;;;;4936126;29;19934;-66
2021/07/21 03:36:02;;;;;;;;;;;15.20;94.60;;;;;;4938162;28;19962;-67
2021/07/21 03:38:28;;;;;;;;;;;15.20;94.70;;;;;;4941062;28;19934;-67
2021/07/21 03:40:54;;;;;;;;;;;15.30;94.70;;;;;;4945038;28;19914;-67
2021/07/21 03:43:22;;;;;;;;;;;15.30;94.60;;;;;;4939964;28;19980;-65
2021/07/21 03:45:48;;;;;;;;;;;15.30;94.40;;;;;;4940705;28;20507;-67
2021/07/21 03:48:13;;;;;;;;;;;15.30;94.40;;;;;;4942031;28;19936;-67
2021/07/21 03:50:39;;;;;;;;;;;15.40;94.50;;;;;;4933906;29;19915;-65
2021/07/21 03:53:05;;;;;;;;;;;15.40;94.40;;;;;;4941739;29;19993;-66
2021/07/21 03:55:31;;;;;;;;;;;15.40;94.40;;;;;;4943409;29;19994;-67
2021/07/21 03:57:56;;;;;;;;;;;15.30;94.50;;;;;;4941167;28;19923;-65
2021/07/21 04:00:22;;;;;;;;;;;15.30;94.60;;;;;;4934623;29;20285;-67
2021/07/21 04:02:53;;;;;;;;;;;15.20;94.80;;;;;;4940422;29;19926;-65
2021/07/21 04:05:19;;;;;;;;;;;15.20;94.80;;;;;;4940443;28;20474;-65
2021/07/21 04:07:45;;;;;;;;;;;15.10;94.90;;;;;;4944191;29;20009;-68
2021/07/21 04:10:11;;;;;;;;;;;15.10;95.20;;;;;;4942470;29;19920;-65
2021/07/21 04:12:39;;;;;;;;;;;15.00;95.30;;;;;;4938004;29;20392;-67
2021/07/21 04:15:05;;;;;;;;;;;15.00;95.40;;;;;;4940878;28;19919;-67
2021/07/21 04:17:31;;;;;;;;;;;15.00;95.40;;;;;;4941180;28;19915;-64
2021/07/21 04:19:57;;;;;;;;;;;15.10;95.30;;;;;;4938404;28;20005;-65
2021/07/21 04:22:23;;;;;;;;;;;15.10;95.40;;;;;;4938704;29;19968;-65
2021/07/21 04:24:49;;;;;;;;;;;15.10;95.30;;;;;;4943141;28;19957;-66
2021/07/21 04:27:14;;;;;;;;;;;15.00;95.40;;;;;;4935350;28;19975;-66
2021/07/21 04:29:42;;;;;;;;;;;15.10;95.60;;;;;;4944335;28;19914;-66
2021/07/21 04:32:09;;;;;;;;;;;15.00;95.50;;;;;;4941872;28;20004;-68
2021/07/21 04:34:34;;;;;;;;;;;15.00;95.60;;;;;;4936297;28;19944;-66
2021/07/21 04:37:00;;;;;;;;;;;15.10;95.70;;;;;;4954707;28;19915;-65
2021/07/21 04:39:26;;;;;;;;;;;15.20;95.50;;;;;;4942830;28;20310;-66
2021/07/21 04:41:53;;;;;;;;;;;15.20;95.50;;;;;;4938011;29;19918;-66
2021/07/21 04:44:19;;;;;;;;;;;15.30;95.50;;;;;;4946116;28;19989;-65
2021/07/21 04:46:45;;;;;;;;;;;15.40;95.30;;;;;;4944775;28;19968;-65
2021/07/21 04:49:14;;;;;;;;;;;15.40;95.20;;;;;;4938998;28;19967;-65
2021/07/21 04:51:40;;;;;;;;;;;15.50;95.30;;;;;;4943095;28;20263;-66
2021/07/21 04:54:06;;;;;;;;;;;15.50;95.20;;;;;;4940689;28;19918;-66
2021/07/21 04:56:32;;;;;;;;;;;15.60;95.20;;;;;;4942180;28;19930;-65
2021/07/21 04:58:57;;;;;;;;;;;15.60;95.10;;;;;;4944881;28;19929;-65
2021/07/21 05:01:23;;;;;;;;;;;15.60;95.10;;;;;;4938575;28;20267;-64
2021/07/21 05:03:49;;;;;;;;;;;15.70;95.00;;;;;;4932197;28;19934;-65
2021/07/21 05:06:14;;;;;;;;;;;15.70;95.00;;;;;;4942704;28;20014;-68
2021/07/21 05:08:40;;;;;;;;;;;15.70;94.90;;;;;;4940483;28;19915;-66
2021/07/21 05:11:05;;;;;;;;;;;15.80;94.90;;;;;;4937413;29;19925;-65
2021/07/21 05:13:32;;;;;;;;;;;15.90;94.60;;;;;;4938284;29;19937;-66
2021/07/21 05:15:58;;;;;;;;;;;16.00;94.40;;;;;;4939097;28;19938;-68
2021/07/21 05:18:23;;;;;;;;;;;16.10;94.00;;;;;;4938472;28;19918;-65
2021/07/21 05:20:49;;;;;;;;;;;16.20;93.80;;;;;;4944809;28;20193;-67
2021/07/21 05:23:14;;;;;;;;;;;16.30;93.30;;;;;;4936965;28;19929;-65
2021/07/21 05:25:40;;;;;;;;;;;16.30;93.30;;;;;;4944851;28;19915;-66
2021/07/21 05:28:06;;;;;;;;;;;16.30;93.20;;;;;;4937707;28;19923;-68
2021/07/21 05:30:32;;;;;;;;;;;16.40;93.30;;;;;;4944467;28;19937;-69
2021/07/21 05:32:57;;;;;;;;;;;16.40;93.20;;;;;;4935015;28;19926;-65
2021/07/21 05:35:23;;;;;;;;;;;16.50;92.70;;;;;;4944097;28;19937;-66
2021/07/21 05:37:48;;;;;;;;;;;16.50;92.60;;;;;;4937317;28;19918;-68
2021/07/21 05:40:14;;;;;;;;;;;16.50;92.50;;;;;;4945373;29;19981;-67
2021/07/21 05:42:39;;;;;;;;;;;16.40;92.30;;;;;;4935131;28;20275;-65
2021/07/21 05:45:05;;;;;;;;;;;16.40;92.40;;;;;;4940946;29;19929;-68
2021/07/21 05:47:30;;;;;;;;;;;16.50;92.50;;;;;;4941624;29;20359;-66
2021/07/21 05:49:56;;;;;;;;;;;16.50;92.10;;;;;;4938573;28;19954;-67
2021/07/21 05:52:21;;;;;;;;;;;16.60;92.00;;;;;;4933818;28;19922;-66
2021/07/21 05:54:47;;;;;;;;;;;16.60;92.00;;;;;;4941173;28;20038;-69
2021/07/21 05:57:12;;;;;;;;;;;16.70;91.80;;;;;;4943973;28;20210;-66
2021/07/21 05:59:38;;;;;;;;;;;16.60;91.60;;;;;;4939028;28;20249;-70
2021/07/21 06:02:03;;;;;;;;;;;16.70;91.70;;;;;;4941365;28;19915;-68
2021/07/21 06:04:29;;;;;;;;;;;16.70;91.70;;;;;;4941308;28;20025;-66
2021/07/21 06:06:54;;;;;;;;;;;16.70;91.50;;;;;;4940363;28;19942;-68
2021/07/21 06:09:20;;;;;;;;;;;16.60;91.70;;;;;;4948033;28;20059;-69
2021/07/21 06:11:46;;;;;;;;;;;16.70;91.70;;;;;;4935686;28;20409;-68
2021/07/21 06:14:11;;;;;;;;;;;16.80;91.40;;;;;;4948799;28;19941;-66
2021/07/21 06:16:37;;;;;;;;;;;16.80;91.10;;;;;;4936928;28;19918;-69
2021/07/21 06:19:03;;;;;;;;;;;16.90;91.00;;;;;;4938094;28;20384;-66
2021/07/21 06:21:29;;;;;;;;;;;16.90;90.80;;;;;;4941365;28;19926;-69
2021/07/21 06:23:54;;;;;;;;;;;16.90;90.50;;;;;;4934035;28;19919;-66
2021/07/21 06:26:20;;;;;;;;;;;17.00;90.50;;;;;;4943022;28;20285;-67
2021/07/21 06:28:45;;;;;;;;;;;17.10;90.30;;;;;;4938450;28;20366;-68
2021/07/21 06:31:11;;;;;;;;;;;17.00;90.10;;;;;;4938629;28;20009;-67
2021/07/21 06:33:36;;;;;;;;;;;17.10;89.90;;;;;;4940409;28;20037;-66
2021/07/21 06:36:02;;;;;;;;;;;17.30;89.90;;;;;;4942343;28;19981;-69
2021/07/21 06:38:28;;;;;;;;;;;17.30;89.50;;;;;;4942614;28;20009;-69
2021/07/21 06:40:54;;;;;;;;;;;17.30;89.20;;;;;;4945505;28;20012;-68
2021/07/21 06:43:21;;;;;;;;;;;17.20;89.30;;;;;;4942537;28;20003;-66
2021/07/21 06:45:47;;;;;;;;;;;17.30;89.40;;;;;;4941422;28;19937;-68
2021/07/21 06:48:12;;;;;;;;;;;17.10;88.90;;;;;;4938463;28;20336;-68
2021/07/21 06:50:38;;;;;;;;;;;17.10;89.30;;;;;;4947833;28;20336;-67
2021/07/21 06:53:04;;;;;;;;;;;17.10;89.10;;;;;;4943379;28;19918;-67
2021/07/21 06:55:29;;;;;;;;;;;17.30;89.40;;;;;;4941232;28;19929;-67
2021/07/21 06:57:55;;;;;;;;;;;17.30;88.90;;;;;;4939793;28;20492;-68
2021/07/21 07:00:21;;;;;;;;;;;17.30;88.70;;;;;;4943542;28;20006;-67
2021/07/21 07:02:46;;;;;;;;;;;17.30;88.30;;;;;;4939903;29;20060;-67
2021/07/21 07:05:12;;;;;;;;;;;17.40;88.40;;;;;;4947019;28;19945;-67
2021/07/21 07:07:38;;;;;;;;;;;17.50;88.40;;;;;;4942707;28;19938;-70
2021/07/21 07:10:04;;;;;;;;;;;17.50;88.00;;;;;;4947725;28;20369;-67
2021/07/21 07:12:29;;;;;;;;;;;17.50;88.30;;;;;;4941876;28;19973;-69
2021/07/21 07:14:54;;;;;;;;;;;17.60;87.80;;;;;;4945021;28;19953;-66
2021/07/21 07:17:20;;;;;;;;;;;17.60;87.20;;;;;;4941718;28;20066;-66
2021/07/21 07:19:46;;;;;;;;;;;17.80;86.80;;;;;;4945594;29;20010;-67
2021/07/21 07:22:11;;;;;;;;;;;17.80;86.70;;;;;;4944340;28;19922;-65
2021/07/21 07:24:37;;;;;;;;;;;18.00;86.80;;;;;;4942102;28;20017;-67
2021/07/21 07:27:03;;;;;;;;;;;17.90;86.10;;;;;;4934450;29;20251;-66
2021/07/21 07:29:28;;;;;;;;;;;18.00;85.60;;;;;;4945595;28;19990;-65
2021/07/21 07:31:54;;;;;;;;;;;18.10;85.30;;;;;;4943252;28;20009;-69
2021/07/21 07:34:20;;;;;;;;;;;18.10;85.60;;;;;;4946450;28;19914;-65
2021/07/21 07:36:46;;;;;;;;;;;18.30;84.90;;;;;;4957528;28;19922;-67
2021/07/21 07:39:12;;;;;;;;;;;18.30;84.30;;;;;;4942833;28;20336;-66
2021/07/21 07:41:38;;;;;;;;;;;18.50;83.90;;;;;;4941624;28;19985;-66
2021/07/21 07:44:04;;;;;;;;;;;18.40;83.70;;;;;;4936695;28;20019;-67
2021/07/21 07:46:30;;;;;;;;;;;18.30;83.40;;;;;;4947061;28;19919;-67
2021/07/21 07:48:56;;;;;;;;;;;18.40;83.80;;;;;;4939436;28;19919;-66
2021/07/21 07:51:22;;;;;;;;;;;18.40;84.00;;;;;;4940705;29;20025;-66
2021/07/21 07:53:48;;;;;;;;;;;18.40;84.00;;;;;;4941163;28;20009;-67
2021/07/21 07:56:13;;;;;;;;;;;18.50;83.70;;;;;;4938310;29;20382;-66
2021/07/21 07:58:39;;;;;;;;;;;18.70;82.80;;;;;;4941246;28;19914;-68
2021/07/21 08:01:05;;;;;;;;;;;19.00;82.50;;;;;;4937889;28;19919;-66
2021/07/21 08:03:30;;;;;;;;;;;19.10;81.50;;;;;;4943318;29;19940;-66
2021/07/21 08:05:59;;;;;;;;;;;19.20;80.90;;;;;;4943291;29;20018;-71
2021/07/21 08:08:24;;;;;;;;;;;19.30;80.60;;;;;;4938422;28;20296;-66
2021/07/21 08:10:50;;;;;;;;;;;19.20;81.60;;;;;;4941389;28;19914;-68
2021/07/21 08:13:16;;;;;;;;;;;19.10;81.40;;;;;;4944063;28;20013;-67
2021/07/21 08:15:41;;;;;;;;;;;19.10;81.40;;;;;;4943185;28;19984;-68
2021/07/21 08:18:07;;;;;;;;;;;19.40;80.70;;;;;;4945008;28;20236;-69
2021/07/21 08:20:32;;;;;;;;;;;19.30;80.40;;;;;;4940473;28;20225;-71
2021/07/21 08:22:58;;;;;;;;;;;19.40;79.80;;;;;;4943325;28;20263;-68
2021/07/21 08:25:24;;;;;;;;;;;19.60;79.20;;;;;;4947684;28;20251;-71
2021/07/21 08:27:50;;;;;;;;;;;19.90;76.90;;;;;;4945152;28;19941;-66
2021/07/21 08:30:16;;;;;;;;;;;20.00;77.00;;;;;;4947626;28;20356;-66
2021/07/21 08:32:48;;;;;;;;;;;20.30;76.70;;;;;;4945998;28;19933;-67
2021/07/21 08:35:14;;;;;;;;;;;20.20;77.90;;;;;;4939710;28;20108;-69
2021/07/21 08:37:39;;;;;;;;;;;20.30;76.90;;;;;;4944092;28;19918;-67
2021/07/21 08:40:06;;;;;;;;;;;20.40;75.80;;;;;;4943555;28;19923;-67
2021/07/21 08:42:32;;;;;;;;;;;20.00;76.40;;;;;;4944097;29;20029;-67
2021/07/21 08:44:57;;;;;;;;;;;19.90;77.00;;;;;;4943192;28;20056;-70
2021/07/21 08:47:23;;;;;;;;;;;19.90;77.20;;;;;;4944267;28;20329;-68
2021/07/21 08:49:49;;;;;;;;;;;20.00;76.80;;;;;;4938356;28;19914;-69
2021/07/21 08:52:15;;;;;;;;;;;19.90;77.00;;;;;;4946986;28;19941;-71
2021/07/21 08:54:41;;;;;;;;;;;20.30;75.60;;;;;;4958498;28;19914;-71
2021/07/21 08:57:07;;;;;;;;;;;20.40;74.20;;;;;;4937281;28;19926;-70
2021/07/21 08:59:33;;;;;;;;;;;20.50;73.80;;;;;;4944223;29;20017;-71
2021/07/21 09:01:59;;;;;;;;;;;20.90;72.40;;;;;;4943606;28;20428;-69
2021/07/21 09:04:24;;;;;;;;;;;20.70;71.70;;;;;;4936327;28;19914;-68
2021/07/21 09:06:50;;;;;;;;;;;20.70;72.80;;;;;;4945403;29;19918;-70
2021/07/21 09:09:16;;;;;;;;;;;20.40;74.30;;;;;;4946231;29;20404;-69
2021/07/21 09:11:41;;;;;;;;;;;20.40;72.30;;;;;;4947084;28;19930;-68
2021/07/21 09:14:07;;;;;;;;;;;20.40;72.10;;;;;;4936272;28;20628;-68
2021/07/21 09:16:33;;;;;;;;;;;20.40;71.60;;;;;;4937681;28;19925;-67
2021/07/21 09:18:58;;;;;;;;;;;20.20;73.10;;;;;;4943517;28;19958;-69
2021/07/21 09:21:24;;;;;;;;;;;20.10;73.00;;;;;;4939892;28;19914;-69
2021/07/21 09:23:51;;;;;;;;;;;20.20;73.80;;;;;;4945074;28;19934;-69
2021/07/21 09:26:19;;;;;;;;;;;20.10;74.60;;;;;;4937965;28;19917;-70
2021/07/21 09:28:44;;;;;;;;;;;20.00;75.20;;;;;;4935041;29;19918;-68
2021/07/21 09:31:15;;;;;;;;;;;20.00;74.10;;;;;;4943377;28;19946;-69
2021/07/21 09:33:42;;;;;;;;;;;20.00;74.10;;;;;;4936571;28;19911;-69
2021/07/21 09:36:16;;;;;;;;;;;20.00;74.10;;;;;;4944263;28;19922;-68
2021/07/21 09:38:44;;;;;;;;;;;20.00;73.90;;;;;;4943392;28;19954;-71
2021/07/21 09:41:11;;;;;;;;;;;20.00;74.80;;;;;;4938474;29;20005;-67
2021/07/21 09:43:36;;;;;;;;;;;20.00;74.60;;;;;;4944131;29;20001;-67
2021/07/21 09:46:04;;;;;;;;;;;20.00;73.90;;;;;;4929322;28;20054;-70
2021/07/21 09:48:38;;;;;;;;;;;20.00;74.20;;;;;;4938710;28;20253;-68
2021/07/21 09:51:04;;;;;;;;;;;20.00;74.80;;;;;;4945824;28;19993;-67
2021/07/21 09:53:37;;;;;;;;;;;19.80;74.20;;;;;;4943503;29;19960;-66
2021/07/21 09:56:02;;;;;;;;;;;19.90;75.40;;;;;;4952222;28;19918;-68
2021/07/21 09:58:31;;;;;;;;;;;19.90;76.40;;;;;;4939780;29;20328;-70
2021/07/21 10:00:56;;;;;;;;;;;19.70;76.90;;;;;;4936150;28;19919;-65
2021/07/21 10:03:26;;;;;;;;;;;19.40;77.30;;;;;;4944120;28;19921;-66
2021/07/21 10:05:58;;;;;;;;;;;19.40;79.70;;;;;;4937922;28;19925;-66
2021/07/21 10:08:43;;;;;;;;;;;19.20;79.30;;;;;;4941432;28;20364;-67
2021/07/21 10:11:27;;;;;;;;;;;19.20;79.70;;;;;;4946309;28;20032;-65
2021/07/21 10:14:07;;;;;;;;;;;19.30;79.60;;;;;;4943027;29;20062;-67
2021/07/21 10:16:33;;;;;;;;;;;19.60;80.30;;;;;;4928493;28;19915;-66
2021/07/21 10:19:07;;;;;;;;;;;19.90;79.60;;;;;;4941910;28;19930;-66
2021/07/21 10:21:32;;;;;;;;;;;20.00;78.50;;;;;;4931066;29;20073;-68
2021/07/21 10:23:58;;;;;;;;;;;19.80;79.10;;;;;;4930503;28;20021;-66
2021/07/21 10:26:27;;;;;;;;;;;19.50;80.00;;;;;;4934245;28;19922;-67
2021/07/21 10:28:54;;;;;;;;;;;19.50;80.40;;;;;;4940823;28;19934;-68
2021/07/21 10:31:19;;;;;;;;;;;19.00;82.50;;;;;;4945129;29;20012;-65
2021/07/21 10:33:46;;;;;;;;;;;18.60;85.80;;;;;;4941825;29;20066;-66
2021/07/21 10:36:12;;;;;;;;;;;18.20;86.50;;;;;;4954747;28;19941;-66
2021/07/21 10:38:38;;;;;;;;;;;18.00;87.60;;;;;;4955234;28;19945;-65
2021/07/21 10:41:04;;;;;;;;;;;18.00;89.10;;;;;;4938204;28;19922;-67
2021/07/21 10:43:30;;;;;;;;;;;18.30;90.00;;;;;;4956371;28;19915;-65
2021/07/21 10:45:55;;;;;;;;;;;18.50;87.90;;;;;;4934439;28;19963;-67
2021/07/21 10:48:40;;;;;;;;;;;18.60;88.70;;;;;;4937841;28;19926;-69
2021/07/21 10:51:16;;;;;;;;;;;18.80;87.20;;;;;;4939748;28;20347;-65
2021/07/21 10:59:13;;;;;;;;;;;19.10;83.20;;;;;;4939237;29;19941;-65
2021/07/21 11:01:40;;;;;;;;;;;19.00;82.20;;;;;;4940946;28;19922;-66
2021/07/21 11:04:05;;;;;;;;;;;19.00;82.00;;;;;;4941464;29;20338;-65
2021/07/21 11:06:38;;;;;;;;;;;19.10;82.10;;;;;;4941640;28;20359;-67
2021/07/21 11:09:17;;;;;;;;;;;19.30;81.90;;;;;;4941143;28;19934;-66
2021/07/21 11:11:42;;;;;;;;;;;19.60;81.30;;;;;;4941661;29;19915;-66
2021/07/21 11:14:09;;;;;;;;;;;19.70;79.00;;;;;;4933834;28;19927;-66
2021/07/21 11:16:39;;;;;;;;;;;20.00;79.00;;;;;;4942498;28;19938;-66
2021/07/21 11:19:23;;;;;;;;;;;19.90;77.80;;;;;;4945318;28;19961;-66
2021/07/21 11:22:11;;;;;;;;;;;20.20;78.40;;;;;;4936209;28;19918;-67
2021/07/21 11:24:55;;;;;;;;;;;20.50;77.50;;;;;;4941430;28;19922;-65
2021/07/21 11:27:36;;;;;;;;;;;20.50;76.20;;;;;;4958526;28;19915;-67
2021/07/21 11:30:01;;;;;;;;;;;20.40;76.80;;;;;;4940993;28;20495;-66
2021/07/21 11:32:29;;;;;;;;;;;20.30;77.20;;;;;;4930832;29;20245;-66
2021/07/21 11:34:55;;;;;;;;;;;20.50;77.40;;;;;;4941846;28;20447;-68
2021/07/21 11:37:32;;;;;;;;;;;20.30;76.90;;;;;;4937799;28;20307;-70
2021/07/21 11:39:58;;;;;;;;;;;20.20;77.80;;;;;;4941526;28;19918;-66
2021/07/21 11:42:26;;;;;;;;;;;20.40;77.10;;;;;;4935330;28;19950;-67
2021/07/21 11:45:04;;;;;;;;;;;20.30;77.10;;;;;;4944990;28;20017;-67
2021/07/21 11:47:31;;;;;;;;;;;20.00;77.10;;;;;;4942987;28;19919;-65
2021/07/21 11:49:56;;;;;;;;;;;19.80;77.80;;;;;;4943323;28;20296;-65
2021/07/21 11:52:23;;;;;;;;;;;20.00;77.60;;;;;;4942202;29;19943;-68
2021/07/21 11:54:49;;;;;;;;;;;20.20;76.50;;;;;;4945944;28;20441;-67
2021/07/21 11:57:15;;;;;;;;;;;20.00;76.60;;;;;;4941472;28;19930;-66
2021/07/21 11:59:41;;;;;;;;;;;20.10;76.40;;;;;;4944012;28;20376;-67
2021/07/21 12:02:11;;;;;;;;;;;20.30;76.70;;;;;;4941989;28;19922;-67
2021/07/21 12:04:43;;;;;;;;;;;20.50;76.00;;;;;;4941779;28;20159;-65
2021/07/21 12:07:10;;;;;;;;;;;20.30;75.20;;;;;;4943398;29;20020;-68
2021/07/21 12:09:36;;;;;;;;;;;20.40;74.10;;;;;;4943207;28;19985;-66
2021/07/21 12:12:03;;;;;;;;;;;20.50;74.90;;;;;;4938044;29;19915;-66
2021/07/21 12:14:29;;;;;;;;;;;20.60;75.20;;;;;;4893792;28;19918;-66
2021/07/21 12:17:01;;;;;;;;;;;20.50;74.30;;;;;;4959055;28;19923;-66
2021/07/21 12:19:27;;;;;;;;;;;20.40;74.30;;;;;;4943239;29;19918;-65
2021/07/21 12:22:04;;;;;;;;;;;20.40;74.10;;;;;;4939134;28;19922;-65
2021/07/21 12:24:55;;;;;;;;;;;20.50;74.10;;;;;;4938756;28;20255;-66
2021/07/21 12:27:31;;;;;;;;;;;20.50;74.30;;;;;;4939817;28;19990;-66
2021/07/21 12:30:08;;;;;;;;;;;20.60;72.20;;;;;;4942675;28;20364;-67
2021/07/21 12:32:33;;;;;;;;;;;20.60;72.80;;;;;;4940789;29;19969;-65
2021/07/21 12:34:59;;;;;;;;;;;20.50;73.20;;;;;;4945082;28;19915;-66
2021/07/21 12:37:26;;;;;;;;;;;20.70;73.00;;;;;;4930536;28;19925;-67
2021/07/21 12:39:53;;;;;;;;;;;20.90;71.80;;;;;;4939501;28;20058;-67
2021/07/21 12:42:28;;;;;;;;;;;21.00;71.80;;;;;;4932827;28;19918;-66
2021/07/21 12:44:57;;;;;;;;;;;21.10;70.90;;;;;;4943301;29;20049;-67
2021/07/21 12:47:27;;;;;;;;;;;21.00;71.00;;;;;;4945985;28;19929;-70
2021/07/21 12:49:54;;;;;;;;;;;21.30;69.90;;;;;;4946112;28;20324;-67
2021/07/21 12:52:25;;;;;;;;;;;21.20;70.10;;;;;;4931620;28;19937;-68
2021/07/21 12:54:52;;;;;;;;;;;21.20;70.80;;;;;;4937462;28;19950;-67
2021/07/21 12:57:30;;;;;;;;;;;21.30;70.70;;;;;;4936840;29;20099;-66
2021/07/21 12:59:57;;;;;;;;;;;21.00;70.90;;;;;;4939925;29;19996;-69
2021/07/21 13:02:26;;;;;;;;;;;20.90;71.20;;;;;;4938961;28;19923;-67
2021/07/21 13:04:51;;;;;;;;;;;20.70;71.20;;;;;;4945620;28;20510;-66
2021/07/21 13:07:21;;;;;;;;;;;20.80;71.40;;;;;;4946479;28;20157;-67
2021/07/21 13:09:49;;;;;;;;;;;21.30;70.80;;;;;;4938962;28;20354;-66
2021/07/21 13:12:16;;;;;;;;;;;21.80;69.90;;;;;;4941620;28;19937;-70
2021/07/21 13:14:41;;;;;;;;;;;22.20;67.90;;;;;;4934424;29;19933;-68
2021/07/21 13:17:10;;;;;;;;;;;22.10;67.00;;;;;;4937968;28;19922;-67
2021/07/21 13:19:36;;;;;;;;;;;23.00;63.70;;;;;;4954248;28;19929;-66
2021/07/21 13:22:02;;;;;;;;;;;23.10;63.50;;;;;;4940702;28;19914;-69
2021/07/21 13:24:29;;;;;;;;;;;23.30;64.20;;;;;;4946706;28;20017;-67
2021/07/21 13:27:00;;;;;;;;;;;23.60;62.80;;;;;;4937581;28;19926;-69
2021/07/21 13:29:35;;;;;;;;;;;23.70;61.20;;;;;;4939274;29;20176;-67
2021/07/21 13:32:03;;;;;;;;;;;23.70;60.50;;;;;;4943725;28;19949;-67
2021/07/21 13:34:33;;;;;;;;;;;23.50;62.00;;;;;;4945137;28;19918;-68
2021/07/21 13:37:00;;;;;;;;;;;23.00;62.10;;;;;;4945934;28;19914;-69
2021/07/21 13:39:26;;;;;;;;;;;22.60;64.40;;;;;;4943441;29;19919;-67
2021/07/21 13:41:55;;;;;;;;;;;22.60;64.50;;;;;;4940100;28;19940;-66
2021/07/21 13:44:29;;;;;;;;;;;22.50;64.40;;;;;;4941999;28;20140;-69
2021/07/21 13:46:57;;;;;;;;;;;22.80;65.80;;;;;;4927564;29;20347;-65
2021/07/21 13:49:30;;;;;;;;;;;23.00;65.30;;;;;;4935555;28;20002;-67
2021/07/21 13:52:04;;;;;;;;;;;23.20;63.40;;;;;;4938816;28;19934;-66
2021/07/21 13:54:31;;;;;;;;;;;24.00;61.60;;;;;;4944008;29;19919;-67
2021/07/21 13:56:58;;;;;;;;;;;23.80;61.70;;;;;;4945905;29;19914;-69
2021/07/21 13:59:24;;;;;;;;;;;23.50;63.00;;;;;;4938460;29;19978;-69
2021/07/21 14:01:51;;;;;;;;;;;23.20;63.80;;;;;;4943906;28;19949;-66
2021/07/21 14:04:17;;;;;;;;;;;23.10;65.90;;;;;;4941373;28;20511;-67
2021/07/21 14:06:44;;;;;;;;;;;23.50;64.00;;;;;;4945333;28;19914;-66
2021/07/21 14:09:11;;;;;;;;;;;23.60;64.50;;;;;;4941392;28;19915;-68
2021/07/21 14:11:36;;;;;;;;;;;23.30;65.20;;;;;;4942028;28;20376;-66
2021/07/21 14:14:02;;;;;;;;;;;22.70;65.70;;;;;;4944633;29;19918;-68
2021/07/21 14:16:28;;;;;;;;;;;22.20;67.40;;;;;;4945934;28;20365;-68
2021/07/21 14:18:53;;;;;;;;;;;22.00;68.60;;;;;;4944557;28;19929;-67
2021/07/21 14:21:19;;;;;;;;;;;21.70;69.10;;;;;;4940298;28;19930;-67
2021/07/21 14:23:45;;;;;;;;;;;21.50;69.70;;;;;;4941795;28;19996;-66